Time;durP1;ratioP1;P1;durP2;ratioP2;P2;SDS_P1;SDS_P2;PMS_P1;PMS_P2;Temp;Humidity;BMP_temperature;BMP_pressure;BME280_temperature;BME280_humidity;BME280_pressure;Samples;Min_cycle;Max_cycle;Signal;HPM_P1;HPM_P2
2021/09/18 00:01:13;;;;;;;17.37;11.85;;;;;;;17.26;100.00;98277.73;1663382;85;20933;-70
2021/09/18 00:03:42;;;;;;;21.73;13.32;;;;;;;17.29;100.00;98272.20;1639600;86;22245;-69
2021/09/18 00:06:18;;;;;;;25.80;14.68;;;;;;;17.31;100.00;98267.66;1633928;86;21096;-70
2021/09/18 00:08:48;;;;;;;20.43;13.55;;;;;;;17.32;100.00;98269.24;1608912;87;20963;-70
2021/09/18 00:11:18;;;;;;;19.32;12.90;;;;;;;17.33;100.00;98268.82;1639575;86;20976;-70
2021/09/18 00:13:47;;;;;;;21.30;15.32;;;;;;;17.34;100.00;98261.30;1597465;88;21023;-70
2021/09/18 00:16:18;;;;;;;30.32;14.65;;;;;;;17.34;100.00;98259.31;1584899;89;21499;-70
2021/09/18 00:18:50;;;;;;;17.70;12.30;;;;;;;17.34;100.00;98262.09;1576589;89;21581;-70
2021/09/18 00:21:22;;;;;;;20.72;13.53;;;;;;;17.35;100.00;98262.29;1618126;87;21057;-70
2021/09/18 00:23:54;;;;;;;18.10;13.08;;;;;;;17.37;100.00;98261.30;1632580;87;21022;-70
2021/09/18 00:26:25;;;;;;;26.40;12.65;;;;;;;17.38;100.00;98255.16;1649958;85;21045;-70
2021/09/18 00:28:56;;;;;;;28.65;15.05;;;;;;;17.37;100.00;98259.12;1656499;86;21520;-70
2021/09/18 00:31:32;;;;;;;24.92;13.80;;;;;;;17.37;100.00;98260.52;1623759;87;20991;-70
2021/09/18 00:34:12;;;;;;;26.37;13.85;;;;;;;17.36;100.00;98256.15;1603229;89;20976;-70
2021/09/18 00:36:37;;;;;;;28.00;13.95;;;;;;;17.34;100.00;98256.54;1603858;88;20927;-70
2021/09/18 00:39:10;;;;;;;23.42;14.10;;;;;;;17.33;100.00;98248.02;1624099;87;21466;-70
2021/09/18 00:41:40;;;;;;;22.53;14.33;;;;;;;17.33;100.00;98245.87;1623464;87;20932;-70
2021/09/18 00:44:09;;;;;;;22.05;14.05;;;;;;;17.32;100.00;98247.84;1618987;87;21023;-70
2021/09/18 00:46:43;;;;;;;20.92;14.53;;;;;;;17.32;100.00;98239.52;1619312;87;21102;-70
2021/09/18 00:49:15;;;;;;;22.13;14.35;;;;;;;17.32;100.00;98241.50;1597969;89;21628;-70
2021/09/18 00:51:46;;;;;;;20.82;13.62;;;;;;;17.31;100.00;98234.38;1604140;88;21447;-71
2021/09/18 00:54:13;;;;;;;20.20;13.60;;;;;;;17.29;100.00;98232.58;1603831;87;21531;-71
2021/09/18 00:56:42;;;;;;;23.98;14.85;;;;;;;17.28;100.00;98231.79;1609165;89;21069;-70
2021/09/18 00:59:17;;;;;;;21.33;13.95;;;;;;;17.29;100.00;98227.03;1631025;86;21026;-70
2021/09/18 01:01:55;;;;;;;17.12;13.05;;;;;;;17.28;100.00;98222.67;1583399;89;21046;-69
2021/09/18 01:04:24;;;;;;;23.40;14.65;;;;;;;17.28;100.00;98225.45;1597017;89;21047;-70
2021/09/18 01:07:00;;;;;;;20.40;14.65;;;;;;;17.27;100.00;98219.70;1604587;87;20927;-71
2021/09/18 01:09:37;;;;;;;29.32;14.93;;;;;;;17.28;100.00;98223.47;1591652;88;21023;-70
2021/09/18 01:12:09;;;;;;;29.18;15.10;;;;;;;17.28;100.00;98219.90;1629252;87;21134;-71
2021/09/18 01:14:36;;;;;;;21.82;14.60;;;;;;;17.28;100.00;98221.28;1616790;87;20919;-70
2021/09/18 01:17:10;;;;;;;22.20;14.20;;;;;;;17.29;100.00;98218.72;1634631;84;20940;-71
2021/09/18 01:19:40;;;;;;;30.90;16.15;;;;;;;17.29;100.00;98221.48;1630671;88;21086;-70
2021/09/18 01:22:08;;;;;;;24.50;15.13;;;;;;;17.28;100.00;98215.14;1632641;86;21035;-70
2021/09/18 01:24:39;;;;;;;23.02;15.35;;;;;;;17.28;100.00;98222.67;1624187;87;20932;-71
2021/09/18 01:27:13;;;;;;;18.42;14.78;;;;;;;17.28;100.00;98215.73;1626874;87;21016;-71
2021/09/18 01:29:40;;;;;;;24.25;14.73;;;;;;;17.27;100.00;98208.02;1630889;87;21542;-71
2021/09/18 01:32:12;;;;;;;21.80;14.95;;;;;;;17.26;100.00;98211.18;1633841;85;20992;-69
2021/09/18 01:34:43;;;;;;;25.23;16.25;;;;;;;17.23;100.00;98205.82;1631682;85;20955;-69
2021/09/18 01:37:11;;;;;;;26.50;16.35;;;;;;;17.21;100.00;98202.65;1627428;87;22884;-69
2021/09/18 01:39:42;;;;;;;25.72;15.38;;;;;;;17.19;100.00;98202.25;1602710;88;21189;-70
2021/09/18 01:42:12;;;;;;;23.95;15.72;;;;;;;17.16;100.00;98203.82;1573875;88;21573;-69
2021/09/18 01:44:41;;;;;;;23.32;15.88;;;;;;;17.13;100.00;98202.42;1602958;87;21004;-69
2021/09/18 01:47:14;;;;;;;20.82;14.25;;;;;;;17.11;100.00;98202.02;1602153;89;20940;-70
2021/09/18 01:49:44;;;;;;;;;;;;;;;17.09;100.00;98201.63;1604414;88;22053;-70
2021/09/18 01:52:32;;;;;;;28.30;16.23;;;;;;;17.08;100.00;98195.88;1585090;89;20094;-70
2021/09/18 01:54:51;;;;;;;27.20;17.07;;;;;;;17.05;100.00;98199.42;1599103;88;21074;-70
2021/09/18 01:57:28;;;;;;;27.82;16.23;;;;;;;17.04;100.00;98202.79;1629923;86;20940;-69
2021/09/18 02:00:01;;;;;;;28.42;17.07;;;;;;;17.02;100.00;98198.23;1609933;88;21443;-70
2021/09/18 02:02:36;;;;;;;21.30;13.75;;;;;;;16.99;100.00;98191.28;1587530;88;21240;-70
2021/09/18 02:05:08;;;;;;;30.43;17.95;;;;;;;16.96;100.00;98189.30;1636436;86;21509;-71
2021/09/18 02:07:51;;;;;;;26.25;17.50;;;;;;;16.92;100.00;98187.89;1632621;87;21047;-70
2021/09/18 02:10:14;;;;;;;22.07;16.70;;;;;;;16.89;100.00;98179.56;1615643;87;21050;-69
2021/09/18 02:12:45;;;;;;;32.42;17.27;;;;;;;16.86;100.00;98177.58;1589089;88;20991;-69
2021/09/18 02:15:15;;;;;;;27.20;16.93;;;;;;;16.84;100.00;98177.97;1601418;88;20972;-69
2021/09/18 02:17:50;;;;;;;23.35;16.80;;;;;;;16.82;100.00;98173.41;1600521;89;21461;-70
2021/09/18 02:20:22;;;;;;;29.55;16.97;;;;;;;16.79;100.00;98174.19;1591706;88;20921;-69
2021/09/18 02:22:55;;;;;;;29.12;18.20;;;;;;;16.79;100.00;98172.80;1592967;89;21095;-69
2021/09/18 02:25:37;;;;;;;27.00;17.85;;;;;;;16.77;100.00;98171.01;1631359;87;21027;-70
2021/09/18 02:28:12;;;;;;;31.40;17.20;;;;;;;16.75;100.00;98171.39;1608086;88;20953;-71
2021/09/18 02:30:46;;;;;;;25.00;16.05;;;;;;;16.74;100.00;98164.89;1577095;88;21060;-70
2021/09/18 02:33:18;;;;;;;26.40;17.32;;;;;;;16.70;100.00;98171.01;1639555;87;21475;-70
2021/09/18 02:35:50;;;;;;;25.60;17.17;;;;;;;16.68;100.00;98167.23;1607133;87;21006;-69
2021/09/18 02:38:24;;;;;;;32.20;19.00;;;;;;;16.66;100.00;98168.81;1603840;87;21042;-71
2021/09/18 02:40:54;;;;;;;24.37;16.87;;;;;;;16.62;100.00;98170.15;1638776;87;21177;-70
2021/09/18 02:43:26;;;;;;;28.55;17.37;;;;;;;16.60;100.00;98166.18;1639573;86;20960;-69
2021/09/18 02:46:00;;;;;;;28.73;18.40;;;;;;;16.56;100.00;98157.06;1618422;87;21010;-70
2021/09/18 02:48:28;;;;;;;;;;;;;;;16.53;100.00;98160.02;1641796;85;21012;-70
2021/09/18 02:51:01;;;;;;;25.68;17.62;;;;;;;16.51;100.00;98156.84;1639167;86;20170;-70
2021/09/18 02:53:37;;;;;;;30.52;19.32;;;;;;;16.48;100.00;98160.38;1656151;85;21829;-71
2021/09/18 02:56:11;;;;;;;24.40;17.70;;;;;;;16.46;100.00;98159.39;1655098;85;20917;-70
2021/09/18 02:58:40;;;;;;;27.52;17.57;;;;;;;16.45;100.00;98155.03;1634823;86;21519;-70
2021/09/18 03:01:13;;;;;;;31.40;17.87;;;;;;;16.44;100.00;98151.27;1642199;85;21011;-70
2021/09/18 03:03:44;;;;;;;25.57;17.37;;;;;;;16.41;100.00;98147.30;1656694;85;21045;-70
2021/09/18 03:06:15;;;;;;;25.70;17.12;;;;;;;16.40;100.00;98142.94;1626051;86;22175;-70
2021/09/18 03:08:46;;;;;;;29.98;18.37;;;;;;;16.38;100.00;98145.89;1662098;86;21067;-71
2021/09/18 03:11:16;;;;;;;27.80;19.15;;;;;;;16.37;100.00;98143.71;1659005;86;20945;-70
2021/09/18 03:13:48;;;;;;;26.70;19.45;;;;;;;16.38;100.00;98145.89;1659006;85;20925;-71
2021/09/18 03:16:21;;;;;;;36.77;18.67;;;;;;;16.41;100.00;98136.80;1661062;85;20944;-70
2021/09/18 03:18:55;;;;;;;26.95;19.73;;;;;;;16.44;100.00;98143.75;1661744;85;21538;-70
2021/09/18 03:21:26;;;;;;;31.50;20.45;;;;;;;16.49;100.00;98139.22;1661247;86;21091;-70
2021/09/18 03:23:57;;;;;;;25.23;19.32;;;;;;;16.54;100.00;98140.03;1654833;86;20965;-70
2021/09/18 03:26:29;;;;;;;24.70;17.95;;;;;;;16.59;100.00;98138.27;1634710;85;21717;-69
2021/09/18 03:29:06;;;;;;;31.52;20.15;;;;;;;16.63;100.00;98142.64;1652066;85;20959;-71
2021/09/18 03:31:38;;;;;;;28.17;17.87;;;;;;;16.67;100.00;98137.15;1645689;86;21140;-70
2021/09/18 03:34:07;;;;;;;31.00;19.30;;;;;;;16.70;100.00;98131.63;1658047;85;21650;-69
2021/09/18 03:36:39;;;;;;;28.00;19.10;;;;;;;16.73;100.00;98134.20;1600371;86;20956;-70
2021/09/18 03:39:07;;;;;;;30.70;19.17;;;;;;;16.74;100.00;98130.25;1654008;86;21579;-70
2021/09/18 03:41:35;;;;;;;29.27;17.95;;;;;;;16.72;100.00;98125.09;1647031;85;20915;-70
2021/09/18 03:44:12;;;;;;;28.40;19.85;;;;;;;16.72;100.00;98124.30;1632694;85;21456;-71
2021/09/18 03:46:40;;;;;;;25.02;18.00;;;;;;;16.69;100.00;98119.55;1648785;86;21086;-71
2021/09/18 03:49:16;;;;;;;25.68;17.90;;;;;;;16.66;100.00;98125.87;1627889;86;21002;-71
2021/09/18 03:51:45;;;;;;;24.60;17.85;;;;;;;16.62;100.00;98125.03;1651498;86;20998;-72
2021/09/18 03:54:13;;;;;;;25.45;18.62;;;;;;;16.58;100.00;98124.22;1598333;87;21060;-72
2021/09/18 03:56:46;;;;;;;25.12;17.23;;;;;;;16.53;100.00;98128.16;1639950;86;21088;-70
2021/09/18 03:59:18;;;;;;;25.13;18.20;;;;;;;16.49;100.00;98135.66;1656268;86;21015;-71
2021/09/18 04:01:50;;;;;;;27.40;18.35;;;;;;;16.45;100.00;98133.46;1628012;86;21138;-70
2021/09/18 04:04:21;;;;;;;28.62;18.23;;;;;;;16.40;100.00;98131.86;1640286;86;21471;-69
2021/09/18 04:06:55;;;;;;;26.75;17.55;;;;;;;16.37;100.00;98125.70;1629992;86;20935;-69
2021/09/18 04:09:30;;;;;;;20.88;17.00;;;;;;;16.36;100.00;98125.51;1637421;86;22349;-68
2021/09/18 04:12:04;;;;;;;24.92;18.25;;;;;;;16.34;100.00;98126.48;1637963;86;20944;-67
2021/09/18 04:14:36;;;;;;;29.52;18.55;;;;;;;16.32;100.00;98125.28;1651833;86;21608;-68
2021/09/18 04:17:06;;;;;;;27.48;19.73;;;;;;;16.31;100.00;98127.27;1638589;86;21027;-70
2021/09/18 04:19:36;;;;;;;24.23;17.87;;;;;;;16.29;100.00;98123.29;1641426;86;21475;-68
2021/09/18 04:22:09;;;;;;;32.45;17.23;;;;;;;16.27;100.00;98122.30;1649926;86;21172;-69
2021/09/18 04:24:39;;;;;;;26.57;18.02;;;;;;;16.28;100.00;98129.42;1639397;86;20939;-69
2021/09/18 04:27:16;;;;;;;34.27;19.10;;;;;;;16.29;100.00;98121.31;1641316;85;21008;-68
2021/09/18 04:29:45;;;;;;;26.80;17.45;;;;;;;16.33;100.00;98123.52;1629506;86;21038;-76
2021/09/18 04:32:14;;;;;;;33.90;17.37;;;;;;;16.36;100.00;98129.66;1639502;86;21647;-75
2021/09/18 04:34:51;;;;;;;25.55;18.67;;;;;;;16.38;100.00;98123.14;1668351;85;21215;-69
2021/09/18 04:37:17;;;;;;;28.35;17.55;;;;;;;16.41;100.00;98116.83;1658410;86;20952;-68
2021/09/18 04:39:47;;;;;;;24.43;16.77;;;;;;;16.45;100.00;98121.00;1658804;86;20944;-69
2021/09/18 04:42:21;;;;;;;29.60;18.40;;;;;;;16.46;100.00;98117.84;1601690;87;21003;-72
2021/09/18 04:44:55;;;;;;;27.58;17.35;;;;;;;16.48;100.00;98116.86;1612032;87;20923;-69
2021/09/18 04:47:29;;;;;;;32.17;17.52;;;;;;;16.50;100.00;98111.72;1584854;87;21001;-70
2021/09/18 04:50:01;;;;;;;30.23;18.20;;;;;;;16.52;100.00;98109.95;1632100;87;21056;-70
2021/09/18 04:52:35;;;;;;;31.20;18.02;;;;;;;16.56;100.00;98111.34;1620823;87;21233;-70
2021/09/18 04:55:08;;;;;;;25.25;17.30;;;;;;;16.60;100.00;98105.23;1611437;88;20970;-69
2021/09/18 04:57:42;;;;;;;26.90;19.05;;;;;;;16.65;100.00;98114.58;1591106;89;21029;-69
2021/09/18 05:00:11;;;;;;;26.52;18.80;;;;;;;16.70;100.00;98107.28;1602650;89;21186;-70
2021/09/18 05:02:42;;;;;;;29.07;18.80;;;;;;;16.77;100.00;98111.43;1583451;89;20918;-69
2021/09/18 05:05:18;;;;;;;29.52;18.30;;;;;;;16.84;100.00;98115.61;1623036;87;21083;-72
2021/09/18 05:07:48;;;;;;;25.37;16.30;;;;;;;16.92;100.00;98107.52;1657384;86;20929;-69
2021/09/18 05:10:25;;;;;;;24.40;17.27;;;;;;;17.00;100.00;98108.33;1658332;86;20949;-70
2021/09/18 05:12:59;;;;;;;27.58;17.02;;;;;;;17.09;100.00;98107.35;1654312;86;20967;-72
2021/09/18 05:15:31;;;;;;;24.05;17.10;;;;;;;17.15;100.00;98112.12;1654320;86;20972;-72
2021/09/18 05:18:03;;;;;;;21.23;15.63;;;;;;;17.22;100.00;98110.55;1654260;86;21443;-72
2021/09/18 05:20:34;;;;;;;24.32;16.60;;;;;;;17.26;100.00;98106.59;1654445;86;21533;-69
2021/09/18 05:23:05;;;;;;;25.65;16.23;;;;;;;17.30;100.00;98101.05;1654584;85;20915;-72
2021/09/18 05:25:37;;;;;;;30.55;16.35;;;;;;;17.31;100.00;98102.63;1649611;86;20949;-73
2021/09/18 05:28:07;;;;;;;28.40;16.73;;;;;;;17.30;100.00;98096.88;1659240;86;21398;-69
2021/09/18 05:30:37;;;;;;;26.23;14.93;;;;;;;17.31;100.00;98098.47;1657073;86;20950;-69
2021/09/18 05:33:10;;;;;;;25.30;14.63;;;;;;;17.31;100.00;98101.24;1657297;86;21512;-68
2021/09/18 05:35:42;;;;;;;28.42;15.05;;;;;;;17.32;100.00;98101.44;1649873;86;20921;-68
2021/09/18 05:38:17;;;;;;;20.05;14.25;;;;;;;17.32;100.00;98104.22;1653494;85;21533;-68
2021/09/18 05:40:49;;;;;;;;;;;;;;;17.32;100.00;98111.15;1642568;86;21018;-72
2021/09/18 05:43:18;;;;;;;28.77;16.45;;;;;;;17.31;100.00;98112.34;1641608;86;20154;-69
2021/09/18 05:45:52;;;;;;;21.23;13.80;;;;;;;17.28;100.00;98107.58;1622651;85;21546;-71
2021/09/18 05:48:25;;;;;;;28.38;14.83;;;;;;;17.26;100.00;98115.50;1625298;86;21785;-72
2021/09/18 05:50:55;;;;;;;27.10;15.80;;;;;;;17.23;100.00;98120.45;1654848;86;21789;-69
2021/09/18 05:53:25;;;;;;;25.37;15.23;;;;;;;17.21;100.00;98109.75;1637565;86;21109;-70
2021/09/18 05:55:55;;;;;;;20.08;14.70;;;;;;;17.20;100.00;98110.94;1644543;86;21521;-70
2021/09/18 05:58:25;;;;;;;24.52;13.53;;;;;;;17.18;100.00;98111.13;1647817;85;21006;-70
2021/09/18 06:00:52;;;;;;;26.40;15.03;;;;;;;17.16;100.00;98112.91;1609209;88;21053;-70
2021/09/18 06:03:22;;;;;;;22.27;12.58;;;;;;;17.13;100.00;98120.03;1595624;89;21077;-70
2021/09/18 06:05:51;;;;;;;20.62;10.50;;;;;;;17.10;100.00;98128.34;1601641;89;21043;-70
2021/09/18 06:08:25;;;;;;;16.93;9.63;;;;;;;17.06;100.00;98134.48;1603340;89;21086;-71
2021/09/18 06:11:01;;;;;;;18.70;8.33;;;;;;;17.03;100.00;98133.87;1584242;89;21129;-72
2021/09/18 06:13:32;;;;;;;12.05;7.87;;;;;;;17.02;100.00;98134.47;1586196;89;21082;-71
2021/09/18 06:16:06;;;;;;;;;;;;;;;17.02;100.00;98130.31;1608137;88;21580;-68
2021/09/18 06:18:36;;;;;;;11.77;7.73;;;;;;;17.02;100.00;98137.23;1603783;89;20119;-69
2021/09/18 06:21:11;;;;;;;11.93;7.25;;;;;;;17.00;100.00;98133.27;1603566;89;21010;-72
2021/09/18 06:23:41;;;;;;;8.33;6.08;;;;;;;16.98;100.00;98141.19;1603864;88;21089;-71
2021/09/18 06:26:09;;;;;;;9.90;6.85;;;;;;;16.98;100.00;98151.69;1603868;88;20895;-73
2021/09/18 06:28:38;;;;;;;6.40;5.80;;;;;;;17.01;100.00;98155.66;1603120;88;21830;-72
2021/09/18 06:31:06;;;;;;;5.80;5.20;;;;;;;17.02;100.00;98148.92;1603901;89;21538;-73
2021/09/18 06:33:43;;;;;;;7.08;5.35;;;;;;;17.06;99.35;98154.67;1599284;89;21424;-73
2021/09/18 06:36:11;;;;;;;6.20;5.58;;;;;;;17.14;98.48;98149.34;1605252;88;21873;-74
2021/09/18 06:38:41;;;;;;;6.80;5.47;;;;;;;17.24;97.71;98151.16;1604108;89;20993;-73
2021/09/18 06:41:18;;;;;;;6.55;5.45;;;;;;;17.33;97.79;98152.95;1604002;88;21177;-72
2021/09/18 06:43:53;;;;;;;5.85;5.25;;;;;;;17.34;96.87;98152.53;1601624;87;20999;-72
2021/09/18 06:46:25;;;;;;;5.80;5.20;;;;;;;17.32;96.17;98154.94;1603979;89;21511;-72
2021/09/18 06:48:55;;;;;;;6.85;5.70;;;;;;;17.27;96.97;98156.70;1597874;89;21485;-73
2021/09/18 06:51:28;;;;;;;5.78;5.17;;;;;;;17.27;97.23;98159.48;1611480;87;21011;-74
2021/09/18 06:54:01;;;;;;;5.65;5.05;;;;;;;17.27;97.15;98165.62;1602346;88;21182;-73
2021/09/18 06:56:36;;;;;;;6.83;5.28;;;;;;;17.26;97.58;98162.64;1620248;88;20969;-73
2021/09/18 06:59:07;;;;;;;8.73;5.60;;;;;;;17.23;97.34;98166.20;1585941;88;21068;-72
2021/09/18 07:01:35;;;;;;;5.92;5.35;;;;;;;17.20;97.74;98163.63;1607358;88;20983;-73
2021/09/18 07:04:03;;;;;;;6.08;5.58;;;;;;;17.18;98.59;98159.66;1604736;88;20993;-73
2021/09/18 07:06:33;;;;;;;6.53;5.87;;;;;;;17.19;98.95;98162.63;1618049;88;21765;-73
2021/09/18 07:09:06;;;;;;;6.40;5.25;;;;;;;17.20;99.31;98158.67;1634047;87;21074;-73
2021/09/18 07:11:36;;;;;;;6.30;5.03;;;;;;;17.20;99.15;98164.22;1593129;85;21083;-74
2021/09/18 07:14:09;;;;;;;5.12;4.72;;;;;;;17.16;98.99;98167.77;1633327;86;20990;-73
2021/09/18 07:16:43;;;;;;;7.20;4.60;;;;;;;17.14;99.67;98167.38;1659439;86;20917;-73
2021/09/18 07:19:11;;;;;;;5.45;4.35;;;;;;;17.12;99.65;98160.63;1646582;86;22650;-74
2021/09/18 07:21:44;;;;;;;4.87;4.37;;;;;;;17.10;98.99;98159.64;1635246;85;21264;-74
2021/09/18 07:24:16;;;;;;;5.42;4.45;;;;;;;17.08;99.34;98162.01;1657642;85;21098;-74
2021/09/18 07:26:49;;;;;;;6.22;4.17;;;;;;;17.06;99.15;98162.99;1649357;85;21027;-74
2021/09/18 07:29:16;;;;;;;4.37;3.85;;;;;;;17.03;98.55;98163.77;1644941;86;21442;-73
2021/09/18 07:31:44;;;;;;;5.00;4.37;;;;;;;16.97;99.08;98158.41;1629621;86;21574;-73
2021/09/18 07:34:16;;;;;;;25.12;19.25;;;;;;;16.92;99.17;98164.34;1622997;87;20978;-73
2021/09/18 07:36:48;;;;;;;7.37;6.60;;;;;;;16.88;99.75;98163.53;1633079;86;21024;-75
2021/09/18 07:39:20;;;;;;;7.08;4.03;;;;;;;16.86;100.00;98172.03;1625469;86;21096;-73
2021/09/18 07:41:51;;;;;;;17.35;13.38;;;;;;;16.80;100.00;98175.18;1623843;86;20969;-72
2021/09/18 07:44:34;;;;;;;44.53;20.10;;;;;;;16.76;100.00;98177.14;1613288;87;21180;-73
2021/09/18 07:47:05;;;;;;;45.95;25.15;;;;;;;16.69;100.00;98184.06;1638786;86;20981;-72
2021/09/18 07:49:41;;;;;;;5.92;3.37;;;;;;;16.60;100.00;98195.27;1649998;85;21035;-73
2021/09/18 07:52:16;;;;;;;3.65;1.70;;;;;;;16.49;100.00;98185.52;1651178;85;21049;-73
2021/09/18 07:54:44;;;;;;;2.02;1.45;;;;;;;16.32;100.00;98197.28;1653092;85;21043;-72
2021/09/18 07:57:21;;;;;;;6.92;4.03;;;;;;;16.12;100.00;98199.55;1650515;84;21215;-73
2021/09/18 07:59:54;;;;;;;13.08;7.30;;;;;;;15.94;100.00;98206.92;1655605;85;20954;-72
2021/09/18 08:02:25;;;;;;;28.25;15.18;;;;;;;15.82;100.00;98208.02;1657551;86;20955;-72
2021/09/18 08:04:53;;;;;;;31.60;21.95;;;;;;;15.73;100.00;98212.48;1601604;88;21629;-73
2021/09/18 08:07:24;;;;;;;28.05;18.62;;;;;;;15.71;100.00;98212.07;1660318;85;21716;-73
2021/09/18 08:10:01;;;;;;;16.27;13.00;;;;;;;15.76;100.00;98215.88;1627394;85;21507;-73
2021/09/18 08:12:34;;;;;;;12.58;9.03;;;;;;;15.80;100.00;98216.70;1663952;85;21050;-73
2021/09/18 08:15:05;;;;;;;12.53;10.63;;;;;;;15.84;100.00;98223.64;1655906;85;20965;-73
2021/09/18 08:17:33;;;;;;;25.15;20.20;;;;;;;15.87;100.00;98222.88;1660322;85;21519;-73
2021/09/18 08:20:05;;;;;;;5.33;4.47;;;;;;;15.88;100.00;98220.32;1658426;86;21569;-78
2021/09/18 08:22:37;;;;;;;6.12;3.02;;;;;;;15.84;99.46;98221.67;1659689;85;21121;-72
2021/09/18 08:25:10;;;;;;;3.55;2.60;;;;;;;15.80;99.36;98228.35;1661013;85;21506;-71
2021/09/18 08:27:45;;;;;;;4.90;3.40;;;;;;;15.78;97.86;98237.03;1662170;86;21058;-73
2021/09/18 08:30:16;;;;;;;;;;;;;;;15.77;97.72;98240.98;1666502;84;20968;-73
2021/09/18 08:32:43;;;;;;;2.08;1.90;;;;;;;15.82;96.99;98252.28;1640276;86;20438;-72
2021/09/18 08:35:12;;;;;;;4.78;3.55;;;;;;;15.89;96.23;98239.10;1645254;86;21489;-72
2021/09/18 08:37:45;;;;;;;5.25;1.67;;;;;;;15.99;94.92;98242.55;1645017;86;21019;-73
2021/09/18 08:40:17;;;;;;;5.83;4.03;;;;;;;16.06;93.28;98246.77;1645272;87;21461;-73
2021/09/18 08:42:48;;;;;;;2.40;2.00;;;;;;;16.08;91.02;98255.48;1645322;86;20964;-74
2021/09/18 08:45:22;;;;;;;1.95;0.88;;;;;;;16.02;90.50;98256.42;1644997;87;21015;-75
2021/09/18 08:47:53;;;;;;;2.72;1.80;;;;;;;15.99;89.47;98255.01;1644934;87;21058;-74
2021/09/18 08:50:22;;;;;;;1.27;1.17;;;;;;;15.94;89.72;98258.92;1644714;86;21003;-75
2021/09/18 08:52:57;;;;;;;1.92;1.10;;;;;;;15.88;89.48;98266.57;1645304;87;21531;-73
2021/09/18 08:55:26;;;;;;;5.35;1.37;;;;;;;15.84;89.41;98271.48;1644835;87;20916;-74
2021/09/18 08:57:59;;;;;;;1.98;1.02;;;;;;;15.84;89.51;98265.16;1645502;86;21631;-73
2021/09/18 09:00:42;;;;;;;4.22;2.92;;;;;;;15.83;89.77;98264.36;1626606;87;20964;-74
2021/09/18 09:03:09;;;;;;;1.30;1.10;;;;;;;15.80;90.02;98265.70;1618493;86;20952;-73
2021/09/18 09:05:44;;;;;;;1.57;1.40;;;;;;;15.73;88.32;98266.44;1613752;87;21153;-72
2021/09/18 09:08:21;;;;;;;3.70;1.07;;;;;;;15.62;87.87;98271.06;1612757;87;21086;-72
2021/09/18 09:10:53;;;;;;;4.05;0.90;;;;;;;15.50;88.49;98269.36;1602871;87;21521;-72
2021/09/18 09:13:23;;;;;;;0.50;0.40;;;;;;;15.44;89.16;98279.76;1597467;88;20985;-73
2021/09/18 09:16:07;;;;;;;2.72;0.80;;;;;;;15.39;89.81;98278.71;1616440;87;20952;-74
2021/09/18 09:18:43;;;;;;;0.50;0.50;;;;;;;15.37;89.98;98281.86;1646270;86;24838;-76
2021/09/18 09:21:23;;;;;;;1.62;1.05;;;;;;;15.34;89.61;98285.96;1603289;87;21040;-75
2021/09/18 09:24:16;;;;;;;4.65;0.80;;;;;;;15.29;89.78;98287.68;1623843;87;21453;-75
2021/09/18 09:26:49;;;;;;;1.02;0.85;;;;;;;15.24;90.21;98292.95;1600160;87;21132;-75
2021/09/18 09:29:24;;;;;;;2.80;1.52;;;;;;;15.24;90.67;98296.30;1588842;87;21082;-74
2021/09/18 09:31:50;;;;;;;5.15;1.20;;;;;;;15.24;90.87;98289.39;1611844;87;21100;-74
2021/09/18 09:34:27;;;;;;;3.02;0.47;;;;;;;15.22;90.84;98291.73;1611912;88;21596;-72
2021/09/18 09:37:01;;;;;;;2.05;0.60;;;;;;;15.22;90.55;98295.30;1587601;88;21044;-69
2021/09/18 09:39:28;;;;;;;0.93;0.45;;;;;;;15.19;90.38;98296.84;1609291;86;21474;-69
2021/09/18 09:41:56;;;;;;;4.83;0.40;;;;;;;15.16;90.11;98304.52;1635075;86;21522;-69
2021/09/18 09:44:27;;;;;;;0.70;0.50;;;;;;;15.14;90.62;98305.47;1625428;86;21107;-72
2021/09/18 09:47:09;;;;;;;0.82;0.68;;;;;;;15.11;89.72;98307.60;1638941;86;21115;-71
2021/09/18 09:49:54;;;;;;;0.68;0.68;;;;;;;15.07;90.07;98313.67;1638410;86;21042;-69
2021/09/18 09:52:30;;;;;;;2.37;0.50;;;;;;;15.02;89.87;98315.38;1652359;86;21199;-69
2021/09/18 09:55:13;;;;;;;3.25;0.75;;;;;;;14.93;90.39;98319.03;1658261;86;21576;-71
2021/09/18 09:57:44;;;;;;;5.92;1.17;;;;;;;14.87;91.28;98324.67;1635796;86;21032;-70
2021/09/18 10:00:14;;;;;;;1.10;0.70;;;;;;;14.86;91.81;98326.64;1648507;86;21046;-71
2021/09/18 10:02:42;;;;;;;2.67;0.60;;;;;;;14.85;91.62;98332.54;1654667;86;21605;-70
2021/09/18 10:05:12;;;;;;;1.17;0.90;;;;;;;14.77;91.17;98341.31;1641839;86;20976;-70
2021/09/18 10:07:39;;;;;;;1.05;0.90;;;;;;;14.62;91.06;98333.98;1646726;86;21043;-71
2021/09/18 10:10:09;;;;;;;1.52;1.10;;;;;;;14.45;91.69;98343.58;1644721;86;21000;-69
2021/09/18 10:12:37;;;;;;;6.17;0.88;;;;;;;14.32;91.91;98350.45;1635431;86;20867;-70
2021/09/18 10:15:07;;;;;;;2.25;1.00;;;;;;;14.22;93.03;98351.08;1643675;85;20984;-69
2021/09/18 10:17:37;;;;;;;3.72;0.80;;;;;;;14.17;93.39;98351.38;1641480;86;21492;-69
2021/09/18 10:20:15;;;;;;;8.80;1.12;;;;;;;14.11;93.80;98352.85;1654835;86;20944;-69
2021/09/18 10:25:32;;;;;;;1.45;0.82;;;;;;;14.20;94.08;98361.69;1654528;86;20967;-69
2021/09/18 10:28:05;;;;;;;0.88;0.70;;;;;;;14.32;94.06;98360.13;1655225;84;20919;-69
2021/09/18 10:30:39;;;;;;;1.72;0.90;;;;;;;14.45;93.41;98357.38;1653499;86;21170;-70
2021/09/18 10:33:08;;;;;;;4.62;0.60;;;;;;;14.56;92.99;98348.47;1647414;86;20959;-71
2021/09/18 10:35:55;;;;;;;0.90;0.70;;;;;;;14.69;92.56;98350.66;1577845;88;21062;-70
2021/09/18 10:38:27;;;;;;;0.75;0.53;;;;;;;14.86;91.42;98356.23;1609209;87;21027;-71
2021/09/18 10:41:01;;;;;;;2.52;0.50;;;;;;;15.06;90.02;98354.92;1626188;86;21111;-71
2021/09/18 10:43:31;;;;;;;3.00;0.70;;;;;;;15.26;90.28;98351.44;1629381;86;21151;-69
2021/09/18 10:45:58;;;;;;;1.55;0.75;;;;;;;15.43;88.04;98350.86;1600409;86;21045;-69
2021/09/18 10:48:47;;;;;;;1.27;0.90;;;;;;;15.60;85.43;98350.09;1618959;86;21079;-70
2021/09/18 10:51:40;;;;;;;0.65;0.65;;;;;;;15.80;85.29;98341.80;1632805;85;21072;-69
2021/09/18 10:54:14;;;;;;;1.37;0.75;;;;;;;16.10;82.91;98343.09;1589991;88;21144;-68
2021/09/18 10:57:03;;;;;;;2.90;0.70;;;;;;;16.24;81.18;98347.34;1614237;86;21180;-70
2021/09/18 10:59:48;;;;;;;5.40;0.70;;;;;;;16.25;80.29;98351.70;1633795;86;20960;-68
2021/09/18 11:02:38;;;;;;;2.75;0.62;;;;;;;16.31;80.73;98352.16;1609045;86;21014;-68
2021/09/18 11:05:27;;;;;;;0.93;0.70;;;;;;;16.37;77.87;98345.09;1637737;87;21063;-67
2021/09/18 11:08:05;;;;;;;1.67;1.00;;;;;;;16.37;79.59;98356.16;1633830;87;21059;-67
2021/09/18 11:10:37;;;;;;;3.52;0.75;;;;;;;16.49;78.58;98351.72;1605225;87;21075;-67
2021/09/18 11:13:13;;;;;;;1.15;0.72;;;;;;;16.67;79.56;98349.11;1617048;87;20916;-70
2021/09/18 11:15:50;;;;;;;3.27;1.02;;;;;;;16.99;77.69;98343.16;1607524;88;21087;-76
2021/09/18 11:18:36;;;;;;;1.45;0.72;;;;;;;17.23;75.58;98344.48;1637590;85;21070;-68
2021/09/18 11:21:12;;;;;;;1.12;0.88;;;;;;;17.24;74.42;98347.46;1622032;87;20876;-67
2021/09/18 11:24:17;;;;;;;2.87;1.00;;;;;;;17.14;74.16;98350.38;1642276;87;22285;-70
2021/09/18 11:26:49;;;;;;;20.02;1.65;;;;;;;17.04;75.63;98347.55;1643077;87;20948;-77
2021/09/18 11:29:33;;;;;;;1.15;0.78;;;;;;;17.05;76.15;98357.45;1646022;86;20956;-72
2021/09/18 11:32:10;;;;;;;1.45;0.60;;;;;;;17.08;75.13;98356.68;1662271;86;21027;-71
2021/09/18 11:34:53;;;;;;;1.90;0.70;;;;;;;17.27;75.12;98355.00;1616482;86;21065;-74
2021/09/18 11:37:35;;;;;;;1.67;0.70;;;;;;;17.58;75.77;98348.56;1652143;86;21025;-72
2021/09/18 11:40:08;;;;;;;0.50;0.50;;;;;;;18.12;73.72;98359.42;1619385;87;20923;-72
2021/09/18 11:42:37;;;;;;;1.42;0.50;;;;;;;18.59;68.49;98347.72;1644199;85;21164;-73
2021/09/18 11:45:19;;;;;;;2.98;0.60;;;;;;;18.76;67.66;98349.72;1640203;85;21139;-73
2021/09/18 11:47:49;;;;;;;0.80;0.65;;;;;;;18.68;66.27;98360.66;1630647;86;22278;-74